North Bay Airport
CYYB : rendu visible

Aérodrome :











RETROUVEZ-NOUS SUR...

 
LOGIN :

S'inscrire | Disclaimer

   EN    FR    IT 

 









Légende :    VFR   VFR Marginal   IFR   IFR Intensif   IFR Très Intensif
Visi : 
Plafond : 
>= 8 km
>= 3000ft
5 à 8 km
1000 à 3000 ft
1500m à 5 km
500 à 1000 ft
800 à 1500m
200 à 500 ft
< 800m
< 200 ft
Symboles :   Orages  Brouillard  Fortes neiges  Fortes précipitations  Vent > 20 kt






- Altitude de l'aérodrome : 1215 ft
- Code IATA : YYB


CYYB - North Bay

DERNIER METAR :
  • 031327Z 34003KT 270V350 3/4SM R08/P6000FT/D BR OVC002 14/14 A2964 RMK FG6ST2 SLP041 DENSITY ALT 1700FT

METARs EXPIRÉS :
  • 031311Z 28003KT 1/2SM R08/3500VP6000FT/U FG VV001 14/14 A2964 RMK FG8 SLP042 DENSITY ALT 1700FT
  • 031254Z 28003KT 1/4SM R08/2600FT/N FG VV001 14/14 A2964 RMK FG8 SLP042 DENSITY ALT 1700FT
  • 031215Z 28003KT 1/2SM R08/5000VP6000FT/D FG VV001 14/13 A2964 RMK FG8 SLP043 DENSITY ALT 1700FT
  • 031200Z 28003KT 3/4SM R08/6000FT/U BR OVC001 14/13 A2964 RMK FG5ST3 SLP041 DENSITY ALT 1700FT
  • 031149Z 30003KT 1/2SM R08/3500VP6000FT/N FG VV001 14/13 A2964 RMK FG8 SLP041 DENSITY ALT 1700FT
  • 031136Z 27003KT 3/8SM R08/1200V2200FT/N FG VV001 14/13 A2964 RMK FG8 SLP041 DENSITY ALT 1700FT
  • 031123Z 00000KT 1/2SM R08/2000FT/N FG VV001 14/14 A2964 RMK FG8 SLP041 DENSITY ALT 1700FT
  • 031112Z 21004KT 2SM R08/3000VP6000FT/D BR OVC003 14/13 A2964 RMK ST8 SLP041 DENSITY ALT 1700FT

TAF AMD TAF CYYB
Valide du 03 à 11h jusqu'au 03 à 20h UTC


031151Z 0311/0320 VRB03KT 3/8SM FG VV001
TEMPO 0311/0314 2SM BR OVC005
FM031400 28008KT P6SM SCT005 BKN030
TEMPO 0314/0316 3SM BR BKN005 BKN030
FM031600 29010KT P6SM BKN020
TEMPO 0316/0318 BKN030
FM031800 29012KT P6SM -SHRA BKN040
PROB30 0318/0320 1SM TSRA BR OVC020CB RMK FCST BASED ON AUTO OBS. NXT FCST BY 031400Z
FIR CZYZ / Amérique du Nord



MET'MAP, la Météo Aéronautique d'un coup d'oeil ! - Copyright ORBIFLY Décembre 2007 - Disclaimer

ORBIFLY MET'MAP TEAM :

Programmation & Développement : Alexandra Zaïnal
Sur une idée originale de : Baudouin d'Aumeries
Assistance à la programmation : Marc-Olivier Méhu
Soutien technique & logistique : Manuel Goepfert

Contact : metmap@orbifly.com




SOURCES & CREDITS :

   NOAA       Earth
Advisory